Latest Weather Observations for Hogan Island

IDT60801

Issued at 4:31 am EST Monday 24 July 2017 (issued every 30 minutes, with the page automatically refreshed every 10 minutes)

About weather observations | Map of weather stations | Latest weather observations for TAS | Other Formats
Station Details ID: 200838 Name: HOGAN ISLAND Lat: -39.22 Lon: 146.98 Height: 116.0 m
Data from the previous 72 hours. | See also: Recent months at Hogan Island
Date/Time
EST
Temp
°C
App
Temp
°C
Dew
Point
°C
Rel
Hum
%
Delta-T
°C
Wind Press
QNH
hPa
Press
MSL
hPa
Rain since
9am
mm
Dir  Spd
km/h
Gust
km/h
Spd
kts
Gust
kts
24/04:30am 9.1 - - - - W 50 56 27 30 1014.0 - 2.8
24/04:00am 9.3 - - - - WSW 48 56 26 30 1013.7 - 2.8
24/03:30am 8.4 - - - - WSW 50 59 27 32 1013.5 - 2.8
24/03:00am 9.2 - - - - WSW 41 48 22 26 1013.7 1013.8 2.8
24/02:30am 9.7 - - - - WSW 41 48 22 26 1013.6 - 2.8
24/02:00am 9.3 - - - - WSW 43 50 23 27 1013.5 - 2.8
24/01:30am 9.5 - - - - WSW 43 50 23 27 1013.3 - 2.8
24/01:00am 9.5 - - - - WSW 48 57 26 31 1013.1 - 2.8
24/12:30am 9.5 - - - - WSW 48 57 26 31 1013.0 - 2.8
24/12:00am 9.4 - - - - WSW 46 61 25 33 1012.9 1013.0 2.8
 
Date/Time
EST
Temp
°C
App
Temp
°C
Dew
Point
°C
Rel
Hum
%
Delta-T
°C
Wind Press
QNH
hPa
Press
MSL
hPa
Rain since
9am
mm
Dir  Spd
km/h
Gust
km/h
Spd
kts
Gust
kts
23/11:30pm 9.5 - - - - WSW 50 57 27 31 1012.7 - 2.8
23/11:00pm 9.8 - - - - WSW 52 59 28 32 1012.5 - 2.8
23/10:30pm 9.8 - - - - WSW 52 65 28 35 1012.0 - 2.8
23/10:00pm 9.1 - - - - WSW 54 69 29 37 1011.8 - 2.8
23/09:30pm 9.8 - - - - WSW 50 59 27 32 1011.7 - 2.8
23/09:03pm 10.1 - - - - WSW 54 74 29 40 1010.6 - 2.6
23/09:00pm 10.6 - - - - WSW 48 61 26 33 1010.9 1011.0 2.6
23/08:30pm 10.5 - - - - W 67 76 36 41 1010.1 - 2.6
23/08:00pm 10.9 - - - - W 65 74 35 40 1009.7 - 2.6
23/07:30pm 10.2 - - - - W 67 89 36 48 1009.3 - 2.4
23/07:27pm 10.5 - - - - W 69 89 37 48 1009.0 - 2.4
23/07:00pm 11.3 - - - - W 67 76 36 41 1008.8 - 2.2
23/06:30pm 11.2 - - - - W 72 83 39 45 1008.1 - 2.2
23/06:00pm 11.3 - - - - W 72 83 39 45 - - 2.2
23/05:30pm 11.2 - - - - W 76 89 41 48 1007.0 - 2.2
23/05:00pm 11.4 - - - - W 78 89 42 48 1006.4 - 2.2
23/04:50pm 11.3 - - - - W 74 93 40 50 1006.2 - 2.2
23/04:30pm 11.0 - - - - W 80 93 43 50 1005.8 - 2.2
23/04:00pm 10.9 - - - - W 74 91 40 49 1005.7 - 2.2
23/03:39pm 10.4 - - - - W 82 100 44 54 1006.0 - 0.6
23/03:30pm 11.7 - - - - W 85 102 46 55 1005.0 - 0.0
23/03:11pm 11.6 - - - - W 83 104 45 56 1004.7 - 0.0
23/03:00pm 11.7 - - - - W 85 102 46 55 1004.8 1004.9 0.0
23/02:45pm 12.7 - 13.7 - - WNW 83 102 45 55 1004.6 - 0.0
23/02:30pm 12.4 - 13.3 - - W 93 109 50 59 1004.2 - 0.0
23/02:01pm 12.8 - 13.7 - - W 85 104 46 56 1004.2 - 0.0
23/02:00pm 13.1 - 14.0 - - W 87 104 47 56 1004.4 - 0.0
23/01:42pm 12.8 - 13.5 - - WNW 91 109 49 59 1003.9 - 0.0
23/01:30pm 13.0 - 13.7 - - WNW 91 106 49 57 1004.0 - 0.0
23/01:00pm 13.0 - 13.7 - - WNW 91 106 49 57 1004.1 - 0.0
23/12:35pm 13.0 - 13.7 - - WNW 85 104 46 56 1005.0 - 0.0
23/12:30pm 12.9 - 13.6 - - W 87 104 47 56 1004.8 - 0.0
23/12:06pm 12.9 - 13.6 - - WNW 82 100 44 54 1005.0 - 0.0
23/12:00pm 13.1 - 13.3 - - WNW 83 98 45 53 1005.2 1005.3 0.0
23/11:42am 12.3 - 13.0 - - WNW 82 100 44 54 1005.4 - 0.0
23/11:30am 12.5 - 13.2 - - WNW 89 102 48 55 1005.5 - 0.0
23/11:28am 12.5 - 13.2 - - WNW 93 102 50 55 1005.2 - 0.0
23/11:00am 12.6 - 13.3 - - WNW 70 91 38 49 1005.8 - 0.0
23/10:33am 12.7 - 13.4 - - WNW 74 93 40 50 1006.0 - 0.0
23/10:30am 12.7 - 13.4 - - WNW 78 95 42 51 1005.9 - 0.0
23/10:21am 12.7 - 13.4 - - WNW 76 95 41 51 1005.8 - 0.0
23/10:00am 12.7 - 13.3 - - WNW 70 85 38 46 1006.1 - 0.0
23/09:57am 12.6 - 13.2 - - WNW 69 87 37 47 1006.3 - 0.0
23/09:30am 12.4 - 13.0 - - WNW 74 89 40 48 1006.4 - 0.0
23/09:24am 12.4 - 13.0 - - WNW 70 89 38 48 1006.3 - 0.0
23/09:00am 12.3 - 12.9 - - WNW 69 83 37 45 1006.5 1006.6 0.0
23/08:30am 12.3 - 12.8 - - WNW 67 74 36 40 1006.7 - 0.0
23/08:00am 12.2 - 12.6 - - WNW 59 70 32 38 1006.9 - 0.0
23/07:43am 12.2 - 12.6 - - WNW 57 76 31 41 1007.1 - 0.0
23/07:30am 12.1 - 12.5 - - WNW 67 76 36 41 1006.9 - 0.0
23/07:00am 12.2 - 12.5 - - WNW 76 89 41 48 1006.3 - 0.0
23/06:30am 12.4 - 12.7 - - WNW 78 93 42 50 1005.8 - 0.0
23/06:16am 12.6 - 12.8 - - WNW 74 95 40 51 1005.7 - 0.0
23/06:00am 12.9 - 13.1 - - WNW 72 82 39 44 1006.0 1006.1 0.0
23/05:30am 12.8 - 13.0 - - WNW 69 80 37 43 1006.1 - 0.0
23/05:27am 12.8 - 13.0 - - WNW 69 80 37 43 1006.0 - 0.0
23/05:14am 11.9 - 12.2 - - NNW 46 65 25 35 1006.8 - 0.0
23/05:00am 12.0 - 12.2 - - NNW 44 59 24 32 1007.0 - 0.0
23/04:30am 12.2 - 12.4 - - NW 54 65 29 35 1007.2 - 0.0
23/04:00am 12.0 - 12.2 - - NW 63 74 34 40 1006.9 - 0.0
23/03:30am 11.9 - 12.2 - - NW 57 69 31 37 1007.2 - 0.0
23/03:00am 11.7 - 12.0 - - NW 59 69 32 37 1007.6 1007.7 0.0
23/02:30am 12.0 1.4 12.0 100 0.0 NW 59 80 32 43 1007.8 - 0.0
23/02:10am 12.1 - 12.4 - - NW 57 76 31 41 1007.9 - 0.0
23/02:00am 12.2 - 12.5 - - WNW 56 70 30 38 1008.1 - 0.0
23/01:30am 11.7 3.1 11.7 100 0.0 NW 48 61 26 33 1008.9 - 0.0
23/01:00am 11.9 - 12.2 - - NW 50 67 27 36 1009.1 - 0.0
23/12:44am 12.0 - 12.3 - - WNW 54 70 29 38 1009.0 - 0.0
23/12:30am 12.3 - 12.5 - - WNW 74 85 40 46 1008.4 - 0.0
23/12:17am 12.5 - 12.7 - - WNW 80 98 43 53 1008.1 - 0.0
23/12:00am 12.2 - 12.5 - - WNW 82 95 44 51 1007.7 1007.8 0.0
 
Date/Time
EST
Temp
°C
App
Temp
°C
Dew
Point
°C
Rel
Hum
%
Delta-T
°C
Wind Press
QNH
hPa
Press
MSL
hPa
Rain since
9am
mm
Dir  Spd
km/h
Gust
km/h
Spd
kts
Gust
kts
22/11:30pm 11.9 - 12.2 - - WNW 76 89 41 48 1008.5 - 0.0
22/11:00pm 11.8 - 12.1 - - WNW 65 74 35 40 1009.6 - 0.0
22/10:32pm 11.9 - 12.2 - - WNW 54 72 29 39 1010.1 - 0.0
22/10:30pm 11.9 - 12.2 - - WNW 52 65 28 35 1010.3 - 0.0
22/10:00pm 11.8 - 12.2 - - NW 43 57 23 31 1010.9 - 0.0
22/09:30pm 11.8 - 12.2 - - NW 43 50 23 27 1011.1 - 0.0
22/09:00pm 11.8 - 12.2 - - NW 39 46 21 25 1011.2 1011.3 0.0
22/08:30pm 12.1 - 12.5 - - NW 33 43 18 23 1011.3 - 0.0
22/08:00pm 12.3 - 12.8 - - NNW 33 41 18 22 1011.6 - 0.0
22/07:30pm 12.4 6.9 12.4 100 0.0 NNW 33 41 18 22 1011.7 - 0.0
22/07:00pm 12.5 - 13.0 - - NNW 26 35 14 19 1011.9 - 0.0
22/06:30pm 12.5 - 13.1 - - NNW 24 33 13 18 1011.9 - 0.0
22/06:00pm 12.0 - 12.6 - - N 26 35 14 19 1011.6 1011.7 0.0
22/05:30pm 12.0 - 12.4 - - N 28 37 15 20 1011.7 - 0.0
22/05:00pm 12.1 - 12.5 - - N 24 33 13 18 1011.9 - 0.0
22/04:30pm 12.1 - 12.4 - - NNW 24 35 13 19 1012.1 - 0.0
22/04:00pm 12.1 - 12.5 - - NNW 24 35 13 19 1012.3 - 0.0
22/03:30pm 11.3 - 11.7 - - N 19 28 10 15 1012.7 - 0.0
22/03:00pm 10.9 - 11.2 - - N 24 32 13 17 1012.9 1013.0 0.0
22/02:30pm 10.8 - 11.1 - - N 22 32 12 17 1012.9 - 0.0
22/02:00pm 10.9 - 11.0 - - NNW 26 33 14 18 1013.1 - 0.0
22/01:30pm 10.7 - 11.0 - - NNW 32 43 17 23 1013.9 - 0.0
22/01:00pm 10.9 - 11.0 - - NW 39 48 21 26 1014.7 - 0.0
22/12:30pm 11.9 - 12.1 - - NW 33 43 18 23 1015.6 - 0.0
22/12:00pm 11.8 - 12.0 - - NW 35 46 19 25 1016.1 1016.2 0.0
22/11:30am 12.0 - 12.3 - - NW 35 44 19 24 1016.8 - 0.0
22/11:00am 11.3 - 11.6 - - NW 35 44 19 24 1017.1 - 0.0
22/10:30am 10.3 - 10.6 - - NW 39 46 21 25 1017.5 - 0.0
22/10:00am 10.2 - 10.5 - - NW 37 48 20 26 1017.6 - 0.0
22/09:30am 10.3 - 10.6 - - NW 33 43 18 23 1018.0 - 0.0
22/09:00am 10.0 - 10.4 - - NW 35 44 19 24 1018.0 1018.2 0.0
22/08:30am 9.6 - 10.2 - - NW 37 43 20 23 1018.2 - 0.0
22/08:00am 9.2 - 9.9 - - NW 28 33 15 18 1018.3 - 0.0
22/07:30am 8.8 - 9.8 - - NW 26 35 14 19 1018.4 - 0.0
22/07:00am 8.6 - - - - NW 22 26 12 14 1018.7 - 0.0
22/06:30am 8.3 - - - - NW 22 26 12 14 1018.5 - 0.0
22/06:00am 8.3 - - - - NW 20 26 11 14 1018.3 1018.5 0.0
22/05:30am 8.6 - 9.6 - - WNW 19 24 10 13 1018.1 - 0.0
22/05:00am 8.8 - 9.8 - - NW 22 28 12 15 1018.2 - 0.0
22/04:30am 9.0 - 10.0 - - NW 24 32 13 17 1018.4 - 0.0
22/04:00am 9.0 - 10.0 - - NW 24 30 13 16 1018.7 - 0.0
22/03:30am 9.1 - - - - NW 20 28 11 15 1018.9 - 0.0
22/03:00am 9.1 - 10.0 - - NW 24 28 13 15 1019.3 1019.5 0.0
22/02:30am 9.3 - 10.3 - - NNW 28 35 15 19 1019.6 - 0.0
22/02:00am 9.5 - - - - NW 32 39 17 21 1020.1 - 0.0
22/01:30am 9.4 - 10.4 - - NNW 30 37 16 20 1020.0 - 0.0
22/01:00am 9.7 - 10.6 - - NNW 24 33 13 18 1020.3 - 0.0
22/12:30am 9.7 - 10.6 - - NNW 26 37 14 20 1020.7 - 0.0
22/12:00am 9.7 - 10.7 - - N 20 37 11 20 1021.2 1021.3 0.0
 
Date/Time
EST
Temp
°C
App
Temp
°C
Dew
Point
°C
Rel
Hum
%
Delta-T
°C
Wind Press
QNH
hPa
Press
MSL
hPa
Rain since
9am
mm
Dir  Spd
km/h
Gust
km/h
Spd
kts
Gust
kts
21/11:30pm 9.7 - - - - N 24 30 13 16 1021.5 - 0.0
21/11:00pm 9.4 - - - - N 22 32 12 17 1021.8 - 0.0
21/10:30pm 9.2 - - - - N 20 26 11 14 1021.7 - 0.0
21/10:00pm 9.2 - - - - N 22 28 12 15 1021.4 - 0.0
21/09:30pm 8.5 - - - - N 20 24 11 13 1021.7 - 0.0
21/09:00pm 8.2 - - - - N 19 22 10 12 1021.7 1021.8 0.0
21/08:30pm 7.7 - - - - NNE 15 19 8 10 1021.6 - 0.0
21/08:00pm 7.7 - - - - NNE 13 15 7 8 1021.6 - 0.0
21/07:30pm 9.0 - 10.0 - - NNE 7 9 4 5 1021.8 - 0.0
21/07:00pm 9.0 - 10.0 - - N 7 9 4 5 1021.8 - 0.0
21/06:30pm 8.7 - 9.7 - - N 9 11 5 6 1021.8 - 0.0
21/06:00pm 9.0 - 9.9 - - N 7 9 4 5 1021.8 1021.9 0.0
21/05:30pm 9.2 - 10.1 - - WNW 9 13 5 7 1021.8 - 0.0
21/05:00pm 9.9 - 10.8 - - WNW 11 15 6 8 1021.6 - 0.0
21/04:30pm 11.2 - 12.1 - - WNW 15 20 8 11 1021.8 - 0.0
21/04:00pm 10.7 - 11.6 - - W 19 24 10 13 1021.8 - 0.0
21/03:30pm 12.0 - 12.7 - - W 20 24 11 13 1021.7 - 0.0
21/03:00pm 12.1 - 12.8 - - WNW 19 22 10 12 1021.7 1021.8 0.0
21/02:30pm 12.7 - 13.4 - - WNW 19 22 10 12 1021.7 - 0.0
21/02:00pm 12.6 - 13.3 - - W 20 24 11 13 1021.9 - 0.0
21/01:30pm 13.0 - 13.6 - - W 19 20 10 11 1022.1 - 0.0
21/01:00pm 12.1 - 12.7 - - W 20 26 11 14 1022.6 - 0.0
21/12:30pm 13.6 - 14.4 - - W 20 24 11 13 1022.8 - 0.0
21/12:00pm 12.6 - 13.2 - - W 19 24 10 13 1023.2 1023.3 0.0
21/11:30am 12.7 - 13.3 - - W 17 20 9 11 1023.4 - 0.0
21/11:00am 12.5 - 13.1 - - W 17 20 9 11 1023.6 - 0.0
21/10:30am 12.2 - 12.9 - - W 15 19 8 10 1023.8 - 0.0
21/10:00am 11.7 - 12.6 - - W 15 19 8 10 1023.8 - 0.0
21/09:30am 10.7 - 11.4 - - WSW 11 13 6 7 1023.5 - 0.0
21/09:00am 10.6 - 11.5 - - WSW 11 15 6 8 1023.3 1023.4 0.0
21/08:30am 9.6 - 10.5 - - WSW 9 11 5 6 1022.9 - 0.0
21/08:00am 9.0 - 9.7 - - SW 9 11 5 6 1022.6 - 0.0
21/07:30am 8.8 - 9.5 - - SSW 7 11 4 6 1022.5 - 0.0
21/07:00am 8.8 - 9.5 - - SW 7 9 4 5 1022.2 - 0.0
21/06:30am 8.3 - 9.0 - - SSW 11 13 6 7 1021.8 - 0.0
21/06:00am 8.2 - 9.1 - - S 7 11 4 6 1021.6 1021.7 0.0
21/05:30am 8.6 - 9.3 - - S 7 9 4 5 1021.5 - 0.0
21/05:00am 8.0 - 8.7 - - SSE 9 15 5 8 1021.3 - 0.0

Other Formats:

Comma delimited format used in spreadsheet applications
http://www.bom.gov.au/fwo/IDT60801/IDT60801.94949.axf

JavaScript Object Notation format (JSON) in row-major order
http://www.bom.gov.au/fwo/IDT60801/IDT60801.94949.json